Accomac, Pennsylvania
Current Conditions -  °F | °C
As of 6:56 AM on Saturday 01 Nov 2014 (Local Time) from KMDT Reporting Station
Overcast Overcast  
Wind Chill: 42°   Ceiling: 2700
Heat Index: 45°   Visibility: 10mi
Dew Point: 41°   Wind: 6mph
Humidity: 86%   Direction: 320°NW
Pressure: 29.84"   Gusts: NA
Location:  40.0152°N, 76.5974°W
Report Text: KMDT 011056Z 32005KT 10SM BKN027 OVC040 07/05 A2984 RMK AO2 SLP105 T00720050
Loading
Personal Weather Stations






























Interactive Weather Map
Tropical Storm Tracking
New forecast layout! Learn more

10-Day Weather Forecast

Advertisements
Track Severe Weather on mobile